createdAt,value
2023-04-18T00:01:40.388Z,6.47
2023-04-18T00:04:09.104Z,6.90
2023-04-18T00:09:05.470Z,5.45
2023-04-18T00:11:34.650Z,6.57
2023-04-18T00:14:03.500Z,7.20
2023-04-18T00:16:34.403Z,6.28
2023-04-18T00:19:03.687Z,5.88
2023-04-18T00:21:33.213Z,5.72
2023-04-18T00:24:01.157Z,5.05
2023-04-18T00:26:29.163Z,5.07
2023-04-18T00:28:58.530Z,5.40
2023-04-18T00:31:26.679Z,6.13
2023-04-18T00:33:54.630Z,6.88
2023-04-18T00:36:24.824Z,9.43
2023-04-18T00:38:52.812Z,7.80
2023-04-18T00:41:22.586Z,8.93
2023-04-18T00:43:50.617Z,6.47
2023-04-18T00:46:18.468Z,6.13
2023-04-18T00:48:48.137Z,5.55
2023-04-18T00:51:16.000Z,4.70
2023-04-18T00:53:44.897Z,5.60
2023-04-18T00:56:12.963Z,5.97
2023-04-18T00:58:41.191Z,6.75
2023-04-18T01:01:09.852Z,5.07
2023-04-18T01:03:39.801Z,5.47
2023-04-18T01:06:08.156Z,6.20
2023-04-18T01:08:36.646Z,6.65
2023-04-18T01:11:04.698Z,5.65
2023-04-18T01:13:32.538Z,6.30
2023-04-18T01:16:00.583Z,6.22
2023-04-18T01:18:31.717Z,5.53
2023-04-18T01:21:00.583Z,8.23
2023-04-18T01:23:29.032Z,7.47
2023-04-18T01:25:56.941Z,7.32
2023-04-18T01:28:27.914Z,5.75
2023-04-18T01:30:57.181Z,4.70
2023-04-18T01:33:25.016Z,4.30
2023-04-18T01:35:53.016Z,4.65
2023-04-18T01:38:20.970Z,5.03
2023-04-18T01:40:49.565Z,5.38
2023-04-18T01:43:17.550Z,5.00
2023-04-18T01:45:45.610Z,5.25
2023-04-18T01:48:13.662Z,5.47
2023-04-18T01:50:43.005Z,5.10
2023-04-18T01:53:11.824Z,5.78
2023-04-18T01:55:39.908Z,4.65
2023-04-18T01:58:07.947Z,5.68
2023-04-18T02:00:37.690Z,5.15
2023-04-18T02:03:07.009Z,4.60
2023-04-18T02:05:37.758Z,4.20
2023-04-18T02:08:08.617Z,4.72
2023-04-18T02:10:39.258Z,4.75
2023-04-18T02:13:07.364Z,4.30
2023-04-18T02:15:35.886Z,4.60
2023-04-18T02:18:04.132Z,4.85
2023-04-18T02:20:33.889Z,4.50
2023-04-18T02:23:03.614Z,6.22
2023-04-18T02:25:31.701Z,5.82
2023-04-18T02:27:59.951Z,5.57
2023-04-18T02:30:27.883Z,5.25
2023-04-18T02:32:59.533Z,5.30
2023-04-18T02:35:28.355Z,5.63
2023-04-18T02:47:24.319Z,4.07
2023-04-18T02:49:52.249Z,4.32
2023-04-18T02:55:37.780Z,7.70
2023-04-18T02:58:06.172Z,7.45
2023-04-18T03:00:39.941Z,5.22
2023-04-18T03:03:11.113Z,5.68
2023-04-18T03:05:53.679Z,5.05
2023-04-18T03:08:21.628Z,6.80
2023-04-18T03:10:49.890Z,12.38
2023-04-18T03:13:21.419Z,6.68
2023-04-18T03:15:49.633Z,11.40
2023-04-18T03:18:17.862Z,9.70
2023-04-18T03:20:45.884Z,8.88
2023-04-18T03:23:13.880Z,9.32
2023-04-18T03:25:41.832Z,8.15
2023-04-18T03:28:10.194Z,9.13
2023-04-18T03:30:38.042Z,7.10
2023-04-18T03:33:07.200Z,7.97
2023-04-18T03:35:35.247Z,8.93
2023-04-18T03:38:03.230Z,6.10
2023-04-18T03:40:36.206Z,7.90
2023-04-18T03:43:10.963Z,12.88
2023-04-18T03:45:39.120Z,8.50
2023-04-18T03:48:07.505Z,8.82
2023-04-18T03:50:40.543Z,11.82
2023-04-18T03:53:11.461Z,19.73
2023-04-18T03:58:08.376Z,7.82
2023-04-18T04:00:36.595Z,7.65
2023-04-18T04:03:11.114Z,6.60
2023-04-18T04:05:40.987Z,7.30
2023-04-18T04:08:09.129Z,7.00
2023-04-18T04:10:37.423Z,8.38
2023-04-18T04:13:05.543Z,7.47
2023-04-18T04:15:38.712Z,7.18
2023-04-18T04:18:09.161Z,6.85
2023-04-18T04:20:40.422Z,7.20
2023-04-18T04:23:13.831Z,6.72
2023-04-18T04:25:45.674Z,7.07
2023-04-18T04:28:24.805Z,8.13
2023-04-18T04:30:58.425Z,6.32
2023-04-18T04:33:28.774Z,6.70
2023-04-18T04:36:01.454Z,6.60
2023-04-18T04:38:31.960Z,9.48
2023-04-18T04:41:00.371Z,7.57
2023-04-18T04:43:29.403Z,12.88
2023-04-18T04:45:58.280Z,10.73
2023-04-18T04:48:26.333Z,13.32
2023-04-18T04:50:57.074Z,10.63
2023-04-18T04:53:27.274Z,10.75
2023-04-18T04:55:56.753Z,9.70
2023-04-18T04:58:25.071Z,9.90
2023-04-18T05:01:31.385Z,9.55
2023-04-18T05:04:00.381Z,9.32
2023-04-18T05:06:28.548Z,8.43
2023-04-18T05:08:57.765Z,9.55
2023-04-18T05:11:25.856Z,9.00
2023-04-18T05:13:53.784Z,8.88
2023-04-18T05:16:22.004Z,9.50
2023-04-18T05:18:50.049Z,9.95
2023-04-18T05:21:18.049Z,7.95
2023-04-18T05:23:46.680Z,13.52
2023-04-18T05:26:14.738Z,8.07
2023-04-18T05:28:42.873Z,9.15
2023-04-18T05:31:10.859Z,14.10
2023-04-18T05:33:38.927Z,10.38
2023-04-18T05:36:07.838Z,8.43
2023-04-18T05:41:04.008Z,7.90
2023-04-18T05:43:32.094Z,9.27
2023-04-18T05:46:00.045Z,7.28
2023-04-18T05:48:28.157Z,10.68
2023-04-18T05:50:56.374Z,11.60
2023-04-18T05:53:24.356Z,7.38
2023-04-18T05:55:52.400Z,6.82
2023-04-18T05:58:20.523Z,8.80
2023-04-18T06:00:48.523Z,8.48
2023-04-18T06:03:16.934Z,7.78
2023-04-18T06:05:45.363Z,8.68
2023-04-18T06:08:13.487Z,9.82
2023-04-18T06:10:41.586Z,11.95
2023-04-18T06:13:09.739Z,7.60
2023-04-18T06:15:37.871Z,7.80
2023-04-18T06:18:05.903Z,7.63
2023-04-18T06:20:34.470Z,7.90
2023-04-18T06:23:02.453Z,8.57
2023-04-18T06:25:30.497Z,9.82
2023-04-18T06:27:58.394Z,6.50
2023-04-18T06:30:26.513Z,7.85
2023-04-18T06:32:54.485Z,6.53
2023-04-18T06:35:23.272Z,6.65
2023-04-18T06:37:52.760Z,7.38
2023-04-18T06:40:20.673Z,5.95
2023-04-18T06:42:48.934Z,11.32
2023-04-18T06:45:16.900Z,6.32
2023-04-18T06:47:45.228Z,9.85
2023-04-18T06:50:14.408Z,7.95
2023-04-18T06:52:45.719Z,6.35
2023-04-18T06:55:14.159Z,9.10
2023-04-18T06:57:42.885Z,7.95
2023-04-18T07:02:40.152Z,6.03
2023-04-18T07:05:08.800Z,7.03
2023-04-18T07:07:45.770Z,8.68
2023-04-18T07:10:13.946Z,7.38
2023-04-18T07:12:41.918Z,5.07
2023-04-18T07:15:10.663Z,7.00
2023-04-18T07:17:38.715Z,7.15
2023-04-18T07:20:07.565Z,5.95
2023-04-18T07:22:35.509Z,5.88
2023-04-18T07:25:03.913Z,5.53
2023-04-18T07:27:31.825Z,5.53
2023-04-18T07:29:59.837Z,6.00
2023-04-18T07:32:27.906Z,5.13
2023-04-18T07:34:57.642Z,6.20
2023-04-18T07:37:26.458Z,6.20
2023-04-18T07:39:54.715Z,9.50
2023-04-18T07:42:22.774Z,6.53
2023-04-18T07:44:50.793Z,5.95
2023-04-18T07:47:22.356Z,7.65
2023-04-18T07:49:51.081Z,6.20
2023-04-18T07:52:19.250Z,7.85
2023-04-18T07:54:47.290Z,6.70
2023-04-18T07:57:15.690Z,5.70
2023-04-18T07:59:43.645Z,7.50
2023-04-18T08:02:11.889Z,8.07
2023-04-18T08:04:40.096Z,8.52
2023-04-18T08:07:08.278Z,8.80
2023-04-18T08:09:36.328Z,6.22
2023-04-18T08:12:04.504Z,8.65
2023-04-18T08:14:32.601Z,9.27
2023-04-18T08:17:00.510Z,13.57
2023-04-18T08:19:28.463Z,14.27
2023-04-18T08:22:09.462Z,9.90
2023-04-18T08:24:44.532Z,5.90
2023-04-18T08:27:19.266Z,6.57
2023-04-18T08:29:47.373Z,6.03
2023-04-18T08:32:15.327Z,5.78
2023-04-18T08:34:43.722Z,6.82
2023-04-18T08:37:11.775Z,6.13
2023-04-18T08:39:39.740Z,8.20
2023-04-18T08:42:10.635Z,5.82
2023-04-18T08:44:38.630Z,4.70
2023-04-18T08:47:10.079Z,6.22
2023-04-18T08:49:38.484Z,7.72
2023-04-18T08:52:14.236Z,4.47
2023-04-18T08:54:43.383Z,6.28
2023-04-18T08:57:12.826Z,4.30
2023-04-18T08:59:43.205Z,6.40
2023-04-18T09:02:13.590Z,5.88
2023-04-18T09:04:49.391Z,4.22
2023-04-18T09:07:18.914Z,5.53
2023-04-18T09:09:48.057Z,4.80
2023-04-18T09:12:22.877Z,5.25
2023-04-18T09:14:58.040Z,4.15
2023-04-18T09:17:43.953Z,5.15
2023-04-18T09:20:15.648Z,5.13
2023-04-18T09:22:52.167Z,4.50
2023-04-18T09:25:30.802Z,4.53
2023-04-18T09:28:01.108Z,4.22
2023-04-18T09:30:38.234Z,5.38
2023-04-18T09:33:11.774Z,4.40
2023-04-18T09:35:39.829Z,3.85
2023-04-18T09:38:08.363Z,3.55
2023-04-18T09:43:22.146Z,3.08
2023-04-18T09:45:50.843Z,3.88
2023-04-18T09:50:47.735Z,5.10
2023-04-18T09:53:21.057Z,4.25
2023-04-18T09:55:57.480Z,4.80
2023-04-18T09:58:29.564Z,4.85
2023-04-18T10:00:58.348Z,5.70
2023-04-18T10:06:01.444Z,4.70
2023-04-18T10:08:29.637Z,5.13
2023-04-18T10:10:59.065Z,3.95
2023-04-18T10:13:28.946Z,5.55
2023-04-18T10:15:57.507Z,4.15
2023-04-18T10:18:25.720Z,4.60
2023-04-18T10:21:03.346Z,6.20
2023-04-18T10:23:31.369Z,3.35
2023-04-18T10:25:59.634Z,4.53
2023-04-18T10:28:28.390Z,3.65
2023-04-18T10:31:05.991Z,3.08
2023-04-18T10:33:40.940Z,3.42
2023-04-18T10:36:10.688Z,4.32
2023-04-18T10:38:50.269Z,4.15
2023-04-18T10:41:25.522Z,5.18
2023-04-18T10:44:23.359Z,6.38
2023-04-18T10:46:51.780Z,4.63
2023-04-18T10:49:31.095Z,3.55
2023-04-18T10:52:02.080Z,3.25
2023-04-18T10:54:33.194Z,4.30
2023-04-18T10:57:03.867Z,3.53
2023-04-18T10:59:33.952Z,4.47
2023-04-18T11:02:24.507Z,3.50
2023-04-18T11:04:54.838Z,3.72
2023-04-18T11:07:40.353Z,3.92
2023-04-18T11:10:09.938Z,4.43
2023-04-18T11:12:40.182Z,3.35
2023-04-18T11:15:21.973Z,3.92
2023-04-18T11:17:58.506Z,5.45
2023-04-18T11:20:27.295Z,5.72
2023-04-18T11:23:00.364Z,3.40
2023-04-18T11:25:34.807Z,5.88
2023-04-18T11:28:04.518Z,5.68
2023-04-18T11:30:40.351Z,5.10
2023-04-18T11:33:09.809Z,3.60
2023-04-18T11:35:42.473Z,5.97
2023-04-18T11:38:13.200Z,4.05
2023-04-18T11:40:48.704Z,4.03
2023-04-18T11:43:21.776Z,4.45
2023-04-18T11:45:57.963Z,3.70
2023-04-18T11:48:42.730Z,5.32
2023-04-18T11:51:38.932Z,5.68
2023-04-18T11:54:40.210Z,5.82
2023-04-18T11:57:22.224Z,3.30
2023-04-18T11:59:55.335Z,2.83
2023-04-18T12:02:26.029Z,4.38
2023-04-18T12:04:59.522Z,6.20
2023-04-18T12:07:42.407Z,4.28
2023-04-18T12:10:28.687Z,2.72
2023-04-18T12:13:00.346Z,3.45
2023-04-18T12:15:30.261Z,3.28
2023-04-18T12:18:05.380Z,4.57
2023-04-18T12:20:39.109Z,5.53
2023-04-18T12:23:08.738Z,3.92
2023-04-18T12:25:37.111Z,3.80
2023-04-18T12:28:15.568Z,3.17
2023-04-18T12:30:43.597Z,4.57
2023-04-18T12:33:11.562Z,3.47
2023-04-18T12:35:39.561Z,4.75
2023-04-18T12:38:07.424Z,4.80
2023-04-18T12:40:35.398Z,6.47
2023-04-18T12:43:04.053Z,3.08
2023-04-18T12:45:32.241Z,4.13
2023-04-18T12:48:00.184Z,4.80
2023-04-18T12:50:28.241Z,3.30
2023-04-18T12:53:00.268Z,5.65
2023-04-18T12:55:29.445Z,3.25
2023-04-18T12:57:58.348Z,4.10
2023-04-18T13:00:29.244Z,2.95
2023-04-18T13:02:58.303Z,4.22
2023-04-18T13:05:32.579Z,4.72
2023-04-18T13:10:33.057Z,3.00
2023-04-18T13:13:01.215Z,10.55
2023-04-18T13:15:29.366Z,1.73
2023-04-18T13:17:57.612Z,2.20
2023-04-18T13:20:25.716Z,2.70
2023-04-18T13:22:53.755Z,2.53
2023-04-18T13:25:21.943Z,2.33
2023-04-18T13:27:52.627Z,1.60
2023-04-18T13:30:20.718Z,7.75
2023-04-18T13:32:48.886Z,5.45
2023-04-18T13:35:16.937Z,3.20
2023-04-18T13:37:44.909Z,2.50
2023-04-18T13:40:13.329Z,2.40
2023-04-18T13:42:41.296Z,3.60
2023-04-18T13:45:09.565Z,1.65
2023-04-18T13:47:37.953Z,1.60
2023-04-18T13:50:06.873Z,1.52
2023-04-18T13:52:35.497Z,2.83
2023-04-18T13:55:04.190Z,2.80
2023-04-18T14:00:01.607Z,3.17
2023-04-18T14:02:41.956Z,1.88
2023-04-18T14:05:10.912Z,2.58
2023-04-18T14:07:38.984Z,1.55
2023-04-18T14:10:07.672Z,4.85
2023-04-18T14:13:01.410Z,9.07
2023-04-18T14:15:29.476Z,3.17
2023-04-18T14:17:57.506Z,1.98
2023-04-18T14:20:26.833Z,4.88
2023-04-18T14:22:54.689Z,1.40
2023-04-18T14:25:23.271Z,2.35
2023-04-18T14:30:32.495Z,1.20
2023-04-18T14:33:00.980Z,1.33
2023-04-18T14:35:29.435Z,2.90
2023-04-18T14:37:57.531Z,0.88
2023-04-18T14:40:25.662Z,2.83
2023-04-18T14:42:53.706Z,2.42
2023-04-18T14:45:22.579Z,3.92
2023-04-18T14:47:51.311Z,1.58
2023-04-18T14:52:47.903Z,2.38
2023-04-18T14:55:16.670Z,0.50
2023-04-18T15:00:15.071Z,4.07
2023-04-18T15:02:43.947Z,1.30
2023-04-18T15:05:13.149Z,2.78
2023-04-18T15:07:43.173Z,2.70
2023-04-18T15:10:15.603Z,3.47
2023-04-18T15:12:43.756Z,2.28
2023-04-18T15:15:11.961Z,7.38
2023-04-18T15:17:40.760Z,3.33
2023-04-18T15:20:10.041Z,16.17
2023-04-18T15:22:38.466Z,2.85
2023-04-18T15:25:07.697Z,1.90
2023-04-18T15:27:36.590Z,3.20
2023-04-18T15:30:05.585Z,2.40
2023-04-18T15:32:34.069Z,3.28
2023-04-18T15:35:03.424Z,2.28
2023-04-18T15:37:31.907Z,2.65
2023-04-18T15:40:01.052Z,5.85
2023-04-18T15:42:30.683Z,1.20
2023-04-18T15:44:59.163Z,2.97
2023-04-18T15:47:27.504Z,1.77
2023-04-18T15:49:55.641Z,6.28
2023-04-18T15:52:23.881Z,2.90
2023-04-18T15:54:52.987Z,2.30
2023-04-18T15:57:22.093Z,2.17
2023-04-18T15:59:50.608Z,3.95
2023-04-18T16:02:19.095Z,3.65
2023-04-18T16:07:16.713Z,5.93
2023-04-18T16:09:45.519Z,4.55
2023-04-18T16:12:13.873Z,4.18
2023-04-18T16:14:42.061Z,2.47
2023-04-18T16:17:10.056Z,3.33
2023-04-18T16:19:40.329Z,1.73
2023-04-18T16:22:08.992Z,2.85
2023-04-18T16:24:37.230Z,1.63
2023-04-18T16:27:06.081Z,0.50
2023-04-18T16:29:35.160Z,1.00
2023-04-18T16:32:04.018Z,0.98
2023-04-18T16:34:34.591Z,7.13
2023-04-18T16:37:03.203Z,4.75
2023-04-18T16:39:31.602Z,1.25
2023-04-18T16:42:00.129Z,1.63
2023-04-18T16:44:29.550Z,1.02
2023-04-18T16:46:59.251Z,2.10
2023-04-18T16:49:28.066Z,4.28
2023-04-18T16:54:24.820Z,2.58
2023-04-18T16:56:53.354Z,3.97
2023-04-18T17:01:50.508Z,3.25
2023-04-18T17:04:18.910Z,3.70
2023-04-18T17:06:47.278Z,4.28
2023-04-18T17:09:15.896Z,5.78
2023-04-18T17:14:13.081Z,6.28
2023-04-18T17:16:42.599Z,12.38
2023-04-18T17:19:11.757Z,10.30
2023-04-18T17:21:40.354Z,5.90
2023-04-18T17:24:09.576Z,5.05
2023-04-18T17:26:39.291Z,4.53
2023-04-18T17:29:07.836Z,4.03
2023-04-18T17:31:36.973Z,4.45
2023-04-18T17:34:06.321Z,3.22
2023-04-18T17:36:34.884Z,3.42
2023-04-18T17:39:06.877Z,2.60
2023-04-18T17:41:39.683Z,2.28
2023-04-18T17:44:08.719Z,3.25
2023-04-18T17:46:37.323Z,3.97
2023-04-18T17:49:05.959Z,4.22
2023-04-18T17:51:35.041Z,6.57
2023-04-18T17:54:03.495Z,9.80
2023-04-18T17:56:32.241Z,10.05
2023-04-18T17:59:00.949Z,5.15
2023-04-18T18:01:30.714Z,7.22
2023-04-18T18:03:59.364Z,8.68
2023-04-18T18:06:28.259Z,6.10
2023-04-18T18:08:57.051Z,2.97
2023-04-18T18:11:25.490Z,3.42
2023-04-18T18:13:55.976Z,2.72
2023-04-18T18:16:24.943Z,3.00
2023-04-18T18:18:53.639Z,7.45
2023-04-18T18:23:50.202Z,5.13
2023-04-18T18:26:18.742Z,2.65
2023-04-18T18:28:48.578Z,2.97
2023-04-18T18:31:17.843Z,4.40
2023-04-18T18:33:46.382Z,2.08
2023-04-18T18:36:14.816Z,1.20
2023-04-18T18:38:43.991Z,1.48
2023-04-18T18:41:12.633Z,0.90
2023-04-18T18:43:41.218Z,0.75
2023-04-18T18:46:10.065Z,0.77
2023-04-18T18:48:39.431Z,1.77
2023-04-18T18:51:08.669Z,4.43
2023-04-18T18:53:38.400Z,4.07
2023-04-18T18:56:09.240Z,4.70
2023-04-18T18:58:37.659Z,4.78
2023-04-18T19:01:07.132Z,10.13
2023-04-18T19:03:36.097Z,5.68
2023-04-18T19:06:06.308Z,4.00
2023-04-18T19:08:35.640Z,5.50
2023-04-18T19:11:04.795Z,2.30
2023-04-18T19:13:33.733Z,1.95
2023-04-18T19:16:02.291Z,2.05
2023-04-18T19:20:59.735Z,1.50
2023-04-18T19:23:28.138Z,4.20
2023-04-18T19:25:57.141Z,6.38
2023-04-18T19:28:26.223Z,6.68
2023-04-18T19:30:54.752Z,1.60
2023-04-18T19:33:24.875Z,1.38
2023-04-18T19:36:02.158Z,3.65
2023-04-18T19:38:31.112Z,5.72
2023-04-18T19:43:27.660Z,2.10
2023-04-18T19:46:05.292Z,3.83
2023-04-18T19:48:33.792Z,2.53
2023-04-18T19:51:04.294Z,2.38
2023-04-18T19:53:32.592Z,2.85
2023-04-18T19:56:02.046Z,3.85
2023-04-18T19:58:45.300Z,4.50
2023-04-18T20:01:15.525Z,2.60
2023-04-18T20:03:44.493Z,4.53
2023-04-18T20:08:42.212Z,2.42
2023-04-18T20:11:11.997Z,0.77
2023-04-18T20:13:40.563Z,0.70
2023-04-18T20:16:09.860Z,2.35
2023-04-18T20:18:41.934Z,1.58
2023-04-18T20:21:11.314Z,2.88
2023-04-18T20:23:42.371Z,2.65
2023-04-18T20:26:10.811Z,0.50
2023-04-18T20:28:39.097Z,0.80
2023-04-18T20:31:07.506Z,2.55
2023-04-18T20:33:36.759Z,1.05
2023-04-18T20:36:06.658Z,2.17
2023-04-18T20:38:34.775Z,1.92
2023-04-18T20:41:03.530Z,1.00
2023-04-18T20:43:36.780Z,2.72
2023-04-18T20:46:05.129Z,1.90
2023-04-18T20:48:33.342Z,2.60
2023-04-18T20:51:01.804Z,0.90
2023-04-18T20:53:30.006Z,0.60
2023-04-18T20:55:57.985Z,0.95
2023-04-18T20:58:26.308Z,1.00
2023-04-18T21:00:54.639Z,1.67
2023-04-18T21:03:23.084Z,3.15
2023-04-18T21:05:51.735Z,1.23
2023-04-18T21:08:20.277Z,0.88
2023-04-18T21:10:48.383Z,1.00
2023-04-18T21:13:16.582Z,1.40
2023-04-18T21:15:44.998Z,2.88
2023-04-18T21:18:13.162Z,1.90
2023-04-18T21:20:41.103Z,2.80
2023-04-18T21:23:09.338Z,2.42
2023-04-18T21:25:37.465Z,1.77
2023-04-18T21:28:05.591Z,1.10
2023-04-18T21:30:34.527Z,2.80
2023-04-18T21:33:03.030Z,1.27
2023-04-18T21:35:31.270Z,0.65
2023-04-18T21:37:59.267Z,1.92
2023-04-18T21:40:27.299Z,0.70
2023-04-18T21:42:55.300Z,2.58
2023-04-18T21:45:23.688Z,0.85
2023-04-18T21:47:52.891Z,0.75
2023-04-18T21:50:21.063Z,0.82
2023-04-18T21:52:49.183Z,1.50
2023-04-18T21:55:18.250Z,1.10
2023-04-18T21:57:46.194Z,1.08
2023-04-18T22:00:14.607Z,1.98
2023-04-18T22:06:04.717Z,30.05
2023-04-18T22:08:36.439Z,17.45
2023-04-18T22:11:05.038Z,8.50
2023-04-18T22:13:33.353Z,9.80
2023-04-18T22:16:03.463Z,5.75
2023-04-18T22:18:35.268Z,1.98
2023-04-18T22:21:04.494Z,8.75
2023-04-18T22:23:32.525Z,13.80
2023-04-18T22:26:00.588Z,7.00
2023-04-18T22:28:31.167Z,4.85
2023-04-18T22:30:59.136Z,7.20
2023-04-18T22:33:27.425Z,6.78
2023-04-18T22:35:55.873Z,5.50
2023-04-18T22:38:27.802Z,4.75
2023-04-18T22:40:55.888Z,4.95
2023-04-18T22:43:25.063Z,5.05
2023-04-18T22:45:53.425Z,6.10
2023-04-18T22:48:21.447Z,5.93
2023-04-18T22:50:50.135Z,6.05
2023-04-18T22:53:18.205Z,6.80
2023-04-18T22:55:46.765Z,8.20
2023-04-18T22:58:15.008Z,5.40
2023-04-18T23:00:43.093Z,3.88
2023-04-18T23:03:11.426Z,3.22
2023-04-18T23:05:40.461Z,4.78
2023-04-18T23:08:08.887Z,4.88
2023-04-18T23:10:36.788Z,5.22
2023-04-18T23:13:04.855Z,3.63
2023-04-18T23:15:32.903Z,2.03
2023-04-18T23:18:01.156Z,6.10
2023-04-18T23:20:29.105Z,3.80
2023-04-18T23:22:57.059Z,4.03
2023-04-18T23:25:24.994Z,3.00
2023-04-18T23:27:52.914Z,1.45
2023-04-18T23:30:20.828Z,3.75
2023-04-18T23:32:48.838Z,4.20
2023-04-18T23:35:16.931Z,3.33
2023-04-18T23:37:44.842Z,3.63
2023-04-18T23:40:12.699Z,2.72
2023-04-18T23:42:40.708Z,2.20
2023-04-18T23:45:08.748Z,4.18
2023-04-18T23:47:36.703Z,2.42
2023-04-18T23:50:05.248Z,5.20
2023-04-18T23:52:33.048Z,4.10
2023-04-18T23:55:01.427Z,3.83
2023-04-18T23:57:29.455Z,3.35
2023-04-18T23:59:57.852Z,2.88
